Time;durP1;ratioP1;P1;durP2;ratioP2;P2;SDS_P1;SDS_P2;PMS_P1;PMS_P2;Temp;Humidity;BMP_temperature;BMP_pressure;BME280_temperature;BME280_humidity;BME280_pressure;Samples;Min_cycle;Max_cycle;Signal;HPM_P1;HPM_P2
2022/10/18 00:00:50;;;;;;;8.30;3.95;;;;;;;9.03;100.00;94000.25;2131532;27;20019;-73
2022/10/18 00:01:51;;;;;;;16.15;4.55;;;;;;;9.03;100.00;94002.91;2130903;27;20030;-70
2022/10/18 00:02:52;;;;;;;9.82;4.13;;;;;;;9.01;100.00;94007.88;2131349;27;20504;-70
2022/10/18 00:03:53;;;;;;;10.75;3.83;;;;;;;9.02;100.00;94003.31;2122368;27;20350;-70
2022/10/18 00:04:54;;;;;;;8.23;3.92;;;;;;;8.98;100.00;93997.97;2122317;27;20031;-69
2022/10/18 00:05:55;;;;;;;12.13;4.18;;;;;;;8.97;100.00;93998.38;2131249;27;20054;-72
2022/10/18 00:06:56;;;;;;;11.32;4.00;;;;;;;8.99;100.00;93999.47;2129659;27;20349;-72
2022/10/18 00:07:57;;;;;;;8.57;3.85;;;;;;;9.06;100.00;93996.81;2127282;27;20487;-70
2022/10/18 00:08:58;;;;;;;9.98;4.32;;;;;;;9.07;100.00;93989.56;2131418;27;20588;-70
2022/10/18 00:09:59;;;;;;;11.05;4.35;;;;;;;9.11;100.00;93993.00;2122289;27;20039;-70
2022/10/18 00:11:00;;;;;;;10.27;4.15;;;;;;;9.14;100.00;93991.47;2122128;27;20027;-70
2022/10/18 00:12:01;;;;;;;10.65;4.13;;;;;;;9.15;100.00;93980.41;2130987;27;20505;-70
2022/10/18 00:13:03;;;;;;;9.02;3.75;;;;;;;9.20;100.00;93988.03;2131377;27;20084;-70
2022/10/18 00:14:04;;;;;;;14.07;4.35;;;;;;;9.23;100.00;93992.59;2131488;27;20027;-73
2022/10/18 00:15:06;;;;;;;16.38;4.30;;;;;;;9.33;100.00;93983.78;2131587;27;20027;-69
2022/10/18 00:16:15;;;;;;;12.93;4.07;;;;;;;9.39;100.00;93994.81;2130968;27;20053;-69
2022/10/18 00:17:16;;;;;;;8.55;4.20;;;;;;;9.37;100.00;93985.69;2130796;27;20033;-70
2022/10/18 00:18:17;;;;;;;8.90;3.88;;;;;;;9.40;100.00;93985.69;2131802;27;20517;-72
2022/10/18 00:19:18;;;;;;;8.13;4.13;;;;;;;9.41;100.00;93987.22;2122070;27;20067;-71
2022/10/18 00:20:19;;;;;;;13.13;5.00;;;;;;;9.40;100.00;93988.34;2113960;28;20071;-72
2022/10/18 00:21:22;;;;;;;12.23;4.50;;;;;;;9.41;100.00;93983.78;2122349;27;20042;-70
2022/10/18 00:22:24;;;;;;;9.52;4.10;;;;;;;9.42;100.00;93993.31;2131290;27;20031;-73
2022/10/18 00:23:26;;;;;;;10.57;3.92;;;;;;;9.40;100.00;93985.69;2126643;27;20103;-70
2022/10/18 00:24:27;;;;;;;15.10;4.63;;;;;;;9.43;100.00;93989.47;2127200;27;20019;-69
2022/10/18 00:25:28;;;;;;;10.07;3.53;;;;;;;9.47;100.00;93992.91;2131552;27;20023;-70
2022/10/18 00:26:30;;;;;;;10.95;4.47;;;;;;;9.48;100.00;93987.19;2131603;27;20038;-70
2022/10/18 00:27:31;;;;;;;8.77;3.70;;;;;;;9.48;100.00;93981.84;2129248;27;20026;-69
2022/10/18 00:28:34;;;;;;;11.02;3.80;;;;;;;9.46;100.00;93997.47;2129852;27;20464;-70
2022/10/18 00:29:35;;;;;;;11.50;3.95;;;;;;;9.47;100.00;93991.00;2131289;27;20474;-70
2022/10/18 00:30:36;;;;;;;3.92;3.00;;;;;;;9.49;100.00;93991.38;2131469;27;20023;-72
2022/10/18 00:31:37;;;;;;;10.55;3.33;;;;;;;9.49;100.00;93987.94;2131399;27;20026;-70
2022/10/18 00:32:40;;;;;;;6.40;3.20;;;;;;;9.47;100.00;93990.22;2131217;27;20118;-69
2022/10/18 00:33:43;;;;;;;11.85;3.63;;;;;;;9.50;100.00;93994.81;2130159;27;20023;-69
2022/10/18 00:34:44;;;;;;;7.40;3.20;;;;;;;9.51;100.00;93991.75;2131359;27;20030;-70
2022/10/18 00:35:45;;;;;;;6.68;2.90;;;;;;;9.53;100.00;93983.38;2131288;27;20106;-69
2022/10/18 00:36:46;;;;;;;7.68;3.10;;;;;;;9.51;100.00;93985.63;2131103;27;20046;-69
2022/10/18 00:37:47;;;;;;;5.95;3.72;;;;;;;9.47;100.00;93988.31;2130957;27;20036;-72
2022/10/18 00:38:48;;;;;;;5.50;3.20;;;;;;;9.52;100.00;93981.81;2130673;27;20117;-69
2022/10/18 00:39:49;;;;;;;7.88;3.03;;;;;;;9.51;100.00;93981.06;2131315;27;20360;-70
2022/10/18 00:40:50;;;;;;;5.22;2.83;;;;;;;9.44;100.00;93981.09;2131294;27;20019;-71
2022/10/18 00:41:51;;;;;;;7.47;3.38;;;;;;;9.44;100.00;93985.66;2131380;27;20102;-70
2022/10/18 00:42:53;;;;;;;6.38;2.85;;;;;;;9.49;100.00;93979.94;2130936;27;20099;-72
2022/10/18 00:44:06;;;;;;;5.13;2.90;;;;;;;9.51;100.00;93981.06;2130548;27;20337;-70
2022/10/18 00:45:15;;;;;;;3.70;2.70;;;;;;;9.51;100.00;93982.97;2128541;27;20491;-73
2022/10/18 00:46:16;;;;;;;9.77;3.20;;;;;;;9.51;100.00;93985.63;2131266;27;20079;-72
2022/10/18 00:47:18;;;;;;;7.47;2.90;;;;;;;9.44;100.00;93983.00;2131626;27;20130;-72
2022/10/18 00:48:19;;;;;;;10.13;3.10;;;;;;;9.41;100.00;93987.22;2131193;27;20558;-70
2022/10/18 00:49:26;;;;;;;4.07;2.90;;;;;;;9.41;100.00;93987.22;2131056;27;20030;-71
2022/10/18 00:50:30;;;;;;;6.80;3.22;;;;;;;9.61;100.00;93986.75;2131305;27;20069;-70
2022/10/18 00:51:37;;;;;;;5.20;2.83;;;;;;;9.65;100.00;93993.59;2127670;27;20058;-70
2022/10/18 00:52:59;;;;;;;10.27;2.97;;;;;;;9.54;100.00;93980.28;2131209;27;20079;-73
2022/10/18 00:54:01;;;;;;;8.73;3.47;;;;;;;9.48;100.00;93984.53;2126436;27;20053;-70
2022/10/18 00:55:04;;;;;;;6.95;3.00;;;;;;;9.49;100.00;93979.94;2130883;27;20026;-70
2022/10/18 00:56:05;;;;;;;9.23;2.95;;;;;;;9.44;100.00;93983.78;2130275;27;20038;-73
2022/10/18 00:57:07;;;;;;;9.23;3.17;;;;;;;9.72;100.00;93987.47;2130990;27;20023;-70
2022/10/18 00:58:10;;;;;;;8.38;2.75;;;;;;;9.55;100.00;93981.06;2131153;27;20023;-72
2022/10/18 00:59:13;;;;;;;6.75;2.95;;;;;;;9.57;100.00;93984.88;2130313;27;20037;-70
2022/10/18 01:00:14;;;;;;;5.90;2.70;;;;;;;9.57;100.00;93992.13;2131004;27;20034;-70
2022/10/18 01:01:16;;;;;;;6.88;2.75;;;;;;;9.46;100.00;93988.72;2131259;27;20030;-72
2022/10/18 01:02:17;;;;;;;4.65;2.60;;;;;;;9.47;100.00;93991.00;2131257;27;20030;-72
2022/10/18 01:03:18;;;;;;;4.95;2.80;;;;;;;9.47;100.00;93996.31;2130642;27;20059;-71
2022/10/18 01:04:20;;;;;;;6.97;2.80;;;;;;;9.50;100.00;93995.56;2129943;27;20066;-70
2022/10/18 01:05:22;;;;;;;5.72;2.88;;;;;;;9.47;100.00;93991.00;2130537;27;20456;-70
2022/10/18 01:06:27;;;;;;;11.00;3.03;;;;;;;9.50;100.00;93990.22;2131078;27;20033;-70
2022/10/18 01:07:34;;;;;;;5.55;2.65;;;;;;;9.45;100.00;93992.53;2121744;27;20023;-70
2022/10/18 01:08:56;;;;;;;4.72;2.60;;;;;;;9.54;100.00;93996.31;2122823;27;20027;-73
2022/10/18 01:10:38;;;;;;;3.83;2.78;;;;;;;9.56;100.00;93983.31;2130377;27;20037;-70
2022/10/18 01:11:48;;;;;;;3.13;2.67;;;;;;;9.59;100.00;93987.91;2117599;27;20045;-73
2022/10/18 01:12:52;;;;;;;7.15;2.70;;;;;;;9.64;100.00;93992.06;2130693;27;20720;-69
2022/10/18 01:14:01;;;;;;;5.47;2.80;;;;;;;9.74;100.00;94006.53;2130730;27;20022;-69
2022/10/18 01:15:17;;;;;;;4.85;2.78;;;;;;;9.69;100.00;93993.59;2126437;27;20030;-71
2022/10/18 01:16:29;;;;;;;8.20;3.08;;;;;;;9.69;100.00;93991.66;2130590;27;20080;-70
2022/10/18 01:18:05;;;;;;;7.88;3.03;;;;;;;9.68;100.00;93978.72;2127057;27;20460;-70
2022/10/18 01:19:36;;;;;;;5.63;2.60;;;;;;;9.73;100.00;93983.66;2109071;27;20050;-70
2022/10/18 01:20:58;;;;;;;6.30;2.75;;;;;;;10.09;100.00;93993.00;2130244;27;20435;-70
2022/10/18 01:22:25;;;;;;;3.63;2.50;;;;;;;9.93;100.00;93986.63;2124206;27;20129;-70
2022/10/18 01:23:25;;;;;;;10.65;2.75;;;;;;;9.85;100.00;93983.22;2120806;27;20045;-72
2022/10/18 01:24:38;;;;;;;4.47;2.80;;;;;;;9.82;100.00;93987.41;2130907;27;20372;-69
2022/10/18 01:25:55;;;;;;;8.27;2.95;;;;;;;9.80;100.00;93988.97;2127731;27;20060;-70
2022/10/18 01:27:04;;;;;;;3.15;2.40;;;;;;;9.80;100.00;93988.97;2130691;27;20429;-70
2022/10/18 01:28:08;;;;;;;6.47;2.95;;;;;;;9.78;100.00;93984.00;2127860;27;20035;-71
2022/10/18 01:29:21;;;;;;;7.45;2.80;;;;;;;9.79;100.00;93993.53;2131105;27;20026;-72
2022/10/18 01:30:41;;;;;;;7.90;2.95;;;;;;;9.74;100.00;93983.25;2131069;27;20026;-70
2022/10/18 01:31:58;;;;;;;6.25;3.10;;;;;;;9.90;100.00;93985.47;2128755;27;20030;-71
2022/10/18 01:33:16;;;;;;;7.15;3.00;;;;;;;9.90;100.00;93985.47;2126585;27;20023;-71
2022/10/18 01:34:19;;;;;;;6.80;2.85;;;;;;;9.81;100.00;93993.16;2130847;27;20027;-70
2022/10/18 01:35:33;;;;;;;8.88;2.75;;;;;;;9.85;100.00;93988.56;2130740;27;20023;-69
2022/10/18 01:36:39;;;;;;;3.10;2.80;;;;;;;9.79;100.00;93990.88;2129129;27;20556;-70
2022/10/18 01:37:44;;;;;;;5.85;2.58;;;;;;;9.81;100.00;93979.81;2130752;27;20378;-70
2022/10/18 01:38:47;;;;;;;7.82;2.92;;;;;;;9.77;100.00;93985.16;2130804;27;20030;-71
2022/10/18 01:39:51;;;;;;;8.98;3.17;;;;;;;9.81;100.00;93993.16;2130782;27;20035;-69
2022/10/18 01:40:54;;;;;;;7.28;3.08;;;;;;;9.85;100.00;93988.56;2130826;27;20041;-70
2022/10/18 01:41:58;;;;;;;10.20;2.63;;;;;;;9.84;100.00;93993.13;2130350;27;20079;-73
2022/10/18 01:43:01;;;;;;;8.88;2.70;;;;;;;9.78;100.00;93992.00;2117187;27;20404;-69
2022/10/18 01:44:06;;;;;;;4.97;3.03;;;;;;;9.79;100.00;93985.53;2121921;27;20436;-69
2022/10/18 01:45:09;;;;;;;5.97;2.85;;;;;;;9.80;100.00;93983.63;2130762;27;20414;-69
2022/10/18 01:46:15;;;;;;;5.40;3.22;;;;;;;9.81;100.00;93979.81;2130796;27;20030;-70
2022/10/18 01:47:17;;;;;;;4.85;2.83;;;;;;;9.83;100.00;93972.94;2129636;27;20026;-71
2022/10/18 01:48:18;;;;;;;10.93;3.55;;;;;;;9.88;100.00;93976.31;2130676;27;20464;-69
2022/10/18 01:49:20;;;;;;;11.60;2.97;;;;;;;9.90;100.00;93977.47;2130545;27;20426;-70
2022/10/18 01:50:32;;;;;;;16.60;3.38;;;;;;;9.92;100.00;93979.72;2130766;27;20049;-70
2022/10/18 01:51:33;;;;;;;17.02;4.22;;;;;;;9.88;100.00;93974.44;2127193;27;20034;-69
2022/10/18 01:52:35;;;;;;;11.18;3.50;;;;;;;9.88;100.00;93976.31;2129775;27;20471;-70
2022/10/18 01:53:36;;;;;;;13.02;4.15;;;;;;;9.89;100.00;93975.19;2130111;27;20505;-69
2022/10/18 01:54:41;;;;;;;10.13;3.45;;;;;;;9.87;100.00;93974.81;2130543;27;20383;-70
2022/10/18 01:55:50;;;;;;;9.52;3.45;;;;;;;9.89;100.00;93972.53;2130664;27;20030;-70
2022/10/18 01:57:01;;;;;;;11.35;3.00;;;;;;;9.85;100.00;93975.19;2130622;27;20018;-70
2022/10/18 01:58:09;;;;;;;9.55;3.08;;;;;;;9.83;100.00;93974.81;2126793;27;20031;-72
2022/10/18 01:59:48;;;;;;;6.75;2.72;;;;;;;9.87;100.00;93972.13;2130718;27;20380;-71
2022/10/18 02:01:03;;;;;;;3.55;2.33;;;;;;;9.89;100.00;93975.94;2097260;27;20021;-72
2022/10/18 02:02:22;;;;;;;9.07;2.90;;;;;;;9.90;100.00;93976.72;2127430;27;20035;-71
2022/10/18 02:03:26;;;;;;;6.43;3.35;;;;;;;9.88;100.00;93970.97;2120047;27;20468;-69
2022/10/18 02:04:50;;;;;;;8.68;2.70;;;;;;;9.87;100.00;93975.56;2122127;27;20188;-69
2022/10/18 02:05:58;;;;;;;10.15;2.80;;;;;;;9.87;100.00;93977.47;2129681;27;20035;-70
2022/10/18 02:07:16;;;;;;;8.15;2.78;;;;;;;9.87;100.00;93978.22;2125944;27;20110;-70
2022/10/18 02:08:48;;;;;;;5.88;2.88;;;;;;;9.91;100.00;93975.56;2128941;27;20713;-70
2022/10/18 02:10:07;;;;;;;4.05;2.58;;;;;;;9.92;100.00;93969.06;2087758;28;20199;-70
2022/10/18 02:11:12;;;;;;;4.30;2.58;;;;;;;9.93;100.00;93971.34;2127988;27;20037;-70
2022/10/18 02:12:15;;;;;;;8.45;2.75;;;;;;;9.96;100.00;93972.47;2130543;27;20019;-70
2022/10/18 02:13:20;;;;;;;4.93;2.55;;;;;;;9.88;100.00;93973.66;2126499;27;20484;-71
2022/10/18 02:16:07;;;;;;;;;;;;;;;9.92;100.00;93977.84;2146533;27;20637;-69
2022/10/18 02:17:11;;;;;;;5.93;2.47;;;;;;;9.95;100.00;93974.38;2138341;27;19911;-69
2022/10/18 02:18:21;;;;;;;3.10;2.72;;;;;;;9.88;100.00;93976.31;2137481;27;20034;-68
2022/10/18 02:19:50;;;;;;;6.88;2.70;;;;;;;9.97;100.00;93974.75;2137504;27;20388;-69
2022/10/18 02:20:52;;;;;;;3.92;2.58;;;;;;;9.97;100.00;93977.44;2134127;27;20042;-69
2022/10/18 02:21:55;;;;;;;7.28;2.80;;;;;;;10.08;100.00;93972.78;2138092;27;20019;-68
2022/10/18 02:22:59;;;;;;;2.72;2.53;;;;;;;10.04;100.00;93977.38;2137765;27;20031;-68
2022/10/18 02:24:01;;;;;;;14.63;3.22;;;;;;;10.04;100.00;93969.38;2133967;27;20019;-69
2022/10/18 02:25:09;;;;;;;6.47;2.63;;;;;;;10.00;100.00;93968.63;2137971;27;20026;-71
2022/10/18 02:26:10;;;;;;;5.13;2.70;;;;;;;9.99;100.00;93966.34;2138063;27;20026;-68
2022/10/18 02:27:11;;;;;;;3.35;2.58;;;;;;;9.97;100.00;93966.75;2124494;27;20039;-70
2022/10/18 02:28:13;;;;;;;6.95;2.60;;;;;;;9.96;100.00;93970.56;2117574;27;20110;-71
2022/10/18 02:29:14;;;;;;;7.20;2.78;;;;;;;10.00;100.00;93957.94;2128187;27;20085;-68
2022/10/18 02:30:16;;;;;;;5.25;2.60;;;;;;;10.01;100.00;93956.06;2137822;27;20049;-68
2022/10/18 02:31:29;;;;;;;4.30;2.83;;;;;;;10.01;100.00;93961.41;2138025;27;20022;-69
2022/10/18 02:32:30;;;;;;;8.05;2.55;;;;;;;9.99;100.00;93964.44;2134106;27;20105;-68
2022/10/18 02:33:51;;;;;;;3.35;2.53;;;;;;;9.96;100.00;93962.53;2137361;27;20038;-68
2022/10/18 02:35:19;;;;;;;6.47;2.50;;;;;;;10.03;100.00;93965.19;2137189;27;20082;-68
2022/10/18 02:36:30;;;;;;;4.32;2.47;;;;;;;10.05;100.00;93962.09;2136784;27;20405;-69
2022/10/18 02:37:37;;;;;;;5.88;2.45;;;;;;;9.98;100.00;93959.50;2134120;27;20213;-72
2022/10/18 02:38:41;;;;;;;6.78;2.60;;;;;;;9.97;100.00;93961.41;2137720;27;20597;-71
2022/10/18 02:39:46;;;;;;;3.20;2.47;;;;;;;9.99;100.00;93958.34;2137091;27;20349;-71
2022/10/18 02:40:47;;;;;;;9.00;2.60;;;;;;;9.97;100.00;93953.41;2137872;27;20022;-71
2022/10/18 02:41:48;;;;;;;6.07;2.30;;;;;;;9.97;100.00;93952.63;2138016;27;20042;-68
2022/10/18 02:42:53;;;;;;;7.00;3.00;;;;;;;9.98;100.00;93957.59;2137635;27;20071;-71
2022/10/18 02:43:54;;;;;;;3.60;2.30;;;;;;;9.96;100.00;93951.84;2137824;27;20027;-71
2022/10/18 02:44:56;;;;;;;4.80;2.58;;;;;;;9.97;100.00;93966.00;2137188;27;20479;-69
2022/10/18 02:45:57;;;;;;;7.03;2.47;;;;;;;9.97;100.00;93953.41;2133670;27;20027;-70
2022/10/18 02:46:59;;;;;;;10.23;2.88;;;;;;;9.93;100.00;93962.59;2137792;27;20022;-70
2022/10/18 02:47:59;;;;;;;9.15;3.15;;;;;;;9.95;100.00;93961.03;2137875;27;20532;-69
2022/10/18 02:49:00;;;;;;;6.70;2.60;;;;;;;9.95;100.00;93953.00;2137649;27;20018;-70
2022/10/18 02:50:02;;;;;;;5.25;2.50;;;;;;;9.97;100.00;93961.41;2137087;27;20051;-69
2022/10/18 02:51:03;;;;;;;7.95;2.50;;;;;;;9.95;100.00;93962.94;2137664;27;20027;-71
2022/10/18 02:52:04;;;;;;;6.75;2.50;;;;;;;9.90;100.00;93963.34;2137888;27;20065;-70
2022/10/18 02:53:05;;;;;;;8.20;2.53;;;;;;;9.93;100.00;93967.91;2137400;27;20022;-71
2022/10/18 02:54:07;;;;;;;5.05;2.60;;;;;;;9.91;100.00;93965.63;2137775;27;20030;-71
2022/10/18 02:55:08;;;;;;;4.85;2.50;;;;;;;9.86;100.00;93970.63;2136854;27;20067;-71
2022/10/18 02:56:09;;;;;;;7.75;2.30;;;;;;;9.80;100.00;93965.69;2137584;27;20025;-70
2022/10/18 02:57:10;;;;;;;3.50;2.50;;;;;;;9.83;100.00;93970.25;2137820;27;20023;-70
2022/10/18 02:58:13;;;;;;;4.97;2.53;;;;;;;9.85;100.00;93967.19;2137815;27;20516;-70
2022/10/18 02:59:14;;;;;;;6.97;2.67;;;;;;;9.79;100.00;93972.19;2137898;27;20489;-72
2022/10/18 03:00:15;;;;;;;2.95;2.45;;;;;;;9.77;100.00;93968.38;2136879;27;20060;-73
2022/10/18 03:01:16;;;;;;;3.65;2.33;;;;;;;9.80;100.00;93970.28;2137802;27;20026;-70
2022/10/18 03:02:17;;;;;;;3.88;2.22;;;;;;;9.80;100.00;93971.03;2137762;27;20025;-71
2022/10/18 03:03:18;;;;;;;2.92;2.30;;;;;;;9.80;100.00;93976.38;2136097;27;20079;-70
2022/10/18 03:04:19;;;;;;;3.97;2.58;;;;;;;9.81;100.00;93969.88;2136417;27;20055;-71
2022/10/18 03:05:20;;;;;;;4.90;2.85;;;;;;;9.79;100.00;93971.44;2136902;27;20113;-69
2022/10/18 03:06:21;;;;;;;7.47;2.40;;;;;;;9.72;100.00;93974.13;2137753;27;20464;-69
2022/10/18 03:07:22;;;;;;;9.68;2.70;;;;;;;9.74;100.00;93971.81;2137549;27;20034;-70
2022/10/18 03:08:23;;;;;;;3.38;2.47;;;;;;;9.75;100.00;93968.78;2137428;27;20030;-71
2022/10/18 03:09:24;;;;;;;6.32;2.42;;;;;;;9.72;100.00;93971.44;2137594;27;20641;-70
2022/10/18 03:10:25;;;;;;;7.28;2.40;;;;;;;9.67;100.00;93969.94;2136799;27;20031;-70
2022/10/18 03:11:26;;;;;;;7.22;2.55;;;;;;;9.59;100.00;93969.22;2137757;27;20026;-73
2022/10/18 03:12:26;;;;;;;7.95;2.58;;;;;;;9.59;100.00;93963.88;2137428;27;20039;-71
2022/10/18 03:13:27;;;;;;;5.35;2.63;;;;;;;9.63;100.00;93965.78;2123597;27;20027;-71
2022/10/18 03:14:28;;;;;;;4.15;2.40;;;;;;;9.61;100.00;93970.72;2120029;27;20515;-71
2022/10/18 03:15:29;;;;;;;5.50;2.70;;;;;;;9.53;100.00;93976.13;2127633;27;20054;-73
2022/10/18 03:16:32;;;;;;;4.20;2.45;;;;;;;9.57;100.00;93970.78;2137648;27;20040;-70
2022/10/18 03:17:33;;;;;;;4.45;2.25;;;;;;;9.59;100.00;93979.13;2137471;27;20102;-70
2022/10/18 03:18:34;;;;;;;8.00;2.80;;;;;;;9.50;100.00;93968.88;2137611;27;20030;-73
2022/10/18 03:19:37;;;;;;;9.50;2.58;;;;;;;9.55;100.00;93973.03;2137578;27;20058;-71
2022/10/18 03:20:39;;;;;;;5.63;2.70;;;;;;;9.55;100.00;93975.72;2137764;27;20022;-72
2022/10/18 03:21:40;;;;;;;6.22;2.50;;;;;;;9.51;100.00;93978.41;2136951;27;20027;-70
2022/10/18 03:22:40;;;;;;;4.63;2.75;;;;;;;9.51;100.00;93980.31;2137689;27;20030;-71
2022/10/18 03:23:42;;;;;;;8.48;2.80;;;;;;;9.55;100.00;93976.47;2136550;27;20477;-72
2022/10/18 03:24:44;;;;;;;6.50;2.85;;;;;;;9.56;100.00;93982.56;2137599;27;20147;-71
2022/10/18 03:25:45;;;;;;;5.50;2.50;;;;;;;9.50;100.00;93989.47;2137626;27;20034;-70
2022/10/18 03:26:46;;;;;;;6.15;2.55;;;;;;;9.51;100.00;93989.06;2134243;27;20026;-73
2022/10/18 03:27:47;;;;;;;6.40;2.38;;;;;;;9.52;100.00;93984.50;2131565;27;20669;-71
2022/10/18 03:28:48;;;;;;;7.25;2.67;;;;;;;9.55;100.00;93981.81;2131459;27;20037;-70
2022/10/18 03:29:49;;;;;;;9.23;2.90;;;;;;;9.50;100.00;93987.56;2131731;27;20023;-74
2022/10/18 03:30:50;;;;;;;4.93;2.33;;;;;;;9.50;100.00;93994.81;2131806;27;20057;-71
2022/10/18 03:31:50;;;;;;;10.65;2.40;;;;;;;9.52;100.00;93987.91;2128333;27;20034;-70
2022/10/18 03:32:53;;;;;;;5.30;2.40;;;;;;;9.53;100.00;93988.69;2131573;27;20022;-72
2022/10/18 03:33:54;;;;;;;5.65;2.30;;;;;;;9.51;100.00;93988.31;2131391;27;20082;-70
2022/10/18 03:34:55;;;;;;;9.65;3.00;;;;;;;9.52;100.00;93974.56;2131683;27;20023;-72
2022/10/18 03:35:56;;;;;;;5.05;2.53;;;;;;;9.56;100.00;93980.66;2131698;27;20018;-73
2022/10/18 03:36:58;;;;;;;6.53;2.50;;;;;;;9.54;100.00;93977.63;2131170;27;20453;-74
2022/10/18 03:37:59;;;;;;;5.78;2.40;;;;;;;9.49;100.00;93983.38;2127381;27;20154;-70
2022/10/18 03:39:01;;;;;;;5.13;2.60;;;;;;;9.45;100.00;93987.19;2131384;27;20071;-74
2022/10/18 03:40:03;;;;;;;8.70;3.10;;;;;;;9.40;100.00;93985.69;2131694;27;20467;-73
2022/10/18 03:41:05;;;;;;;14.77;3.10;;;;;;;9.43;100.00;93984.91;2131903;27;20042;-73
2022/10/18 03:42:06;;;;;;;25.35;3.42;;;;;;;9.44;100.00;93983.78;2131121;27;20127;-70
2022/10/18 03:43:07;;;;;;;15.15;2.90;;;;;;;9.52;100.00;93974.56;2131116;27;20445;-74
2022/10/18 03:44:07;;;;;;;15.63;3.10;;;;;;;9.45;100.00;93982.63;2131412;27;20035;-70
2022/10/18 03:45:08;;;;;;;13.10;2.60;;;;;;;9.39;100.00;93984.16;2131621;27;20498;-73
2022/10/18 03:46:09;;;;;;;9.35;2.70;;;;;;;9.43;100.00;93982.22;2113863;28;20027;-70
2022/10/18 03:47:11;;;;;;;10.88;2.45;;;;;;;9.45;100.00;93987.97;2104951;28;20031;-71
2022/10/18 03:48:12;;;;;;;5.95;2.50;;;;;;;9.41;100.00;93989.88;2120474;27;20027;-71
2022/10/18 03:49:13;;;;;;;19.73;2.97;;;;;;;9.38;100.00;93987.97;2122211;27;20027;-72
2022/10/18 03:50:14;;;;;;;2.88;2.47;;;;;;;9.36;100.00;93989.53;2122116;27;20023;-70
2022/10/18 03:51:15;;;;;;;8.20;2.92;;;;;;;9.46;100.00;93989.47;2131674;27;20445;-70
2022/10/18 03:52:16;;;;;;;9.07;2.78;;;;;;;9.46;100.00;93986.81;2121533;27;20035;-72
2022/10/18 03:53:17;;;;;;;5.55;2.60;;;;;;;9.48;100.00;93992.53;2121691;27;20026;-71
2022/10/18 03:54:18;;;;;;;4.57;2.75;;;;;;;9.43;100.00;93994.81;2131674;27;20074;-72
2022/10/18 03:55:19;;;;;;;5.80;3.05;;;;;;;9.45;100.00;93998.63;2131482;27;20025;-73
2022/10/18 03:56:20;;;;;;;9.65;3.13;;;;;;;9.44;100.00;93991.00;2131715;27;20038;-72
2022/10/18 03:57:21;;;;;;;6.60;2.80;;;;;;;9.40;100.00;93991.03;2131312;27;20065;-74
2022/10/18 03:58:22;;;;;;;4.85;2.83;;;;;;;9.37;100.00;94007.03;2131776;27;20035;-71
2022/10/18 03:59:23;;;;;;;7.82;3.50;;;;;;;9.37;100.00;93996.38;2131779;27;20027;-71
2022/10/18 04:00:25;;;;;;;4.18;3.22;;;;;;;9.38;100.00;93995.97;2131572;27;20108;-72
2022/10/18 04:01:26;;;;;;;7.45;2.78;;;;;;;9.36;100.00;94000.94;2131860;27;20052;-71
2022/10/18 04:02:27;;;;;;;8.20;2.65;;;;;;;9.33;100.00;93991.03;2130964;27;20019;-72
2022/10/18 04:03:27;;;;;;;4.72;2.95;;;;;;;9.26;100.00;93993.72;2122964;27;20027;-70
2022/10/18 04:04:28;;;;;;;6.63;2.90;;;;;;;9.26;100.00;94007.84;2131980;27;20259;-72
2022/10/18 04:05:30;;;;;;;9.20;3.55;;;;;;;9.42;100.00;93996.72;2122522;27;20076;-71
2022/10/18 04:06:31;;;;;;;12.23;2.97;;;;;;;9.27;100.00;93996.00;2105651;28;20111;-71
2022/10/18 04:07:33;;;;;;;10.35;2.80;;;;;;;9.28;100.00;93994.09;2112515;28;20032;-72
2022/10/18 04:08:34;;;;;;;17.25;3.10;;;;;;;9.21;100.00;94000.19;2128230;27;20499;-71
2022/10/18 04:09:35;;;;;;;9.90;2.85;;;;;;;9.19;100.00;93997.19;2131349;27;20031;-74
2022/10/18 04:10:37;;;;;;;9.82;2.78;;;;;;;9.13;100.00;93995.28;2131364;27;20073;-72
2022/10/18 04:11:38;;;;;;;11.82;3.13;;;;;;;9.15;100.00;94001.00;2130884;27;20026;-72
2022/10/18 04:12:39;;;;;;;7.85;3.20;;;;;;;9.06;100.00;94001.41;2131447;27;20038;-70
2022/10/18 04:13:40;;;;;;;9.13;2.75;;;;;;;9.04;100.00;94004.44;2126221;27;20033;-70
2022/10/18 04:14:41;;;;;;;7.47;3.38;;;;;;;9.05;100.00;94005.97;2131369;27;20035;-71
2022/10/18 04:15:43;;;;;;;16.17;3.33;;;;;;;8.99;100.00;93999.47;2130840;27;20070;-71
2022/10/18 04:16:43;;;;;;;8.07;2.50;;;;;;;8.97;100.00;93995.69;2131311;27;20354;-71
2022/10/18 04:17:44;;;;;;;13.25;3.00;;;;;;;9.06;100.00;94004.06;2131456;27;20200;-72
2022/10/18 04:18:45;;;;;;;16.08;2.97;;;;;;;9.02;100.00;93995.31;2121538;27;20117;-73
2022/10/18 04:19:46;;;;;;;8.88;2.80;;;;;;;8.99;100.00;93996.06;2121669;27;20449;-70
2022/10/18 04:20:47;;;;;;;12.40;2.92;;;;;;;8.97;100.00;93995.69;2131454;27;20030;-72
2022/10/18 04:21:48;;;;;;;8.10;2.67;;;;;;;8.90;100.00;93991.13;2128283;27;20042;-71
2022/10/18 04:22:50;;;;;;;7.07;2.70;;;;;;;8.99;100.00;93994.16;2126349;27;20018;-70
2022/10/18 04:23:51;;;;;;;6.82;2.88;;;;;;;9.26;100.00;93991.84;2125918;27;20263;-70
2022/10/18 04:24:52;;;;;;;5.90;2.63;;;;;;;9.13;100.00;94000.59;2128065;27;20160;-70
2022/10/18 04:25:53;;;;;;;6.32;2.72;;;;;;;9.01;100.00;93993.78;2128315;27;20777;-71
2022/10/18 04:26:54;;;;;;;8.35;2.90;;;;;;;8.96;100.00;93991.50;2127524;27;20022;-70
2022/10/18 04:27:56;;;;;;;6.95;2.53;;;;;;;8.80;100.00;93995.31;2125725;27;20019;-70
2022/10/18 04:28:57;;;;;;;8.05;2.72;;;;;;;8.75;100.00;93993.03;2123965;27;20027;-70
2022/10/18 04:30:00;;;;;;;7.32;2.92;;;;;;;8.86;100.00;93987.69;2119945;27;20843;-70
2022/10/18 04:31:01;;;;;;;14.05;2.75;;;;;;;8.83;100.00;93993.81;2128765;27;20025;-71
2022/10/18 04:32:02;;;;;;;10.10;3.00;;;;;;;8.85;100.00;93994.19;2128857;27;20524;-72
2022/10/18 04:33:03;;;;;;;10.43;3.33;;;;;;;8.81;100.00;93988.84;2128016;27;20069;-71
2022/10/18 04:34:04;;;;;;;12.48;3.33;;;;;;;8.76;100.00;93994.56;2127751;27;20627;-72
2022/10/18 04:35:05;;;;;;;7.30;2.97;;;;;;;9.10;100.00;93996.81;2128451;27;20480;-73
2022/10/18 04:36:07;;;;;;;11.63;2.92;;;;;;;9.00;100.00;93995.69;2128504;27;20026;-70
2022/10/18 04:37:08;;;;;;;8.90;2.90;;;;;;;9.01;100.00;94001.78;2128191;27;20491;-74
2022/10/18 04:38:09;;;;;;;5.70;3.50;;;;;;;9.01;100.00;93996.44;2128133;27;20050;-71
2022/10/18 04:39:10;;;;;;;7.47;3.05;;;;;;;9.03;100.00;93994.16;2124431;27;20650;-71
2022/10/18 04:40:11;;;;;;;5.88;3.25;;;;;;;8.92;100.00;93994.19;2116251;27;20056;-70
2022/10/18 04:41:12;;;;;;;9.45;3.00;;;;;;;8.81;100.00;93994.16;2119353;27;20046;-71
2022/10/18 04:42:13;;;;;;;8.82;2.90;;;;;;;8.78;100.00;93992.28;2128666;27;20030;-70
2022/10/18 04:43:16;;;;;;;8.30;2.83;;;;;;;8.78;100.00;93991.50;2128186;27;20034;-73
2022/10/18 04:44:17;;;;;;;5.13;2.67;;;;;;;8.68;100.00;94000.28;2128104;27;20027;-71
2022/10/18 04:45:18;;;;;;;4.82;2.55;;;;;;;8.55;100.00;93992.66;2128762;27;20495;-71
2022/10/18 04:46:19;;;;;;;3.88;3.05;;;;;;;8.57;100.00;93992.28;2128439;27;20050;-71
2022/10/18 04:47:20;;;;;;;10.80;3.58;;;;;;;8.55;100.00;93992.66;2128860;27;20066;-72
2022/10/18 04:48:21;;;;;;;2.92;2.40;;;;;;;8.56;100.00;93998.78;2128709;27;20030;-70
2022/10/18 04:49:22;;;;;;;5.55;3.13;;;;;;;8.55;100.00;93998.00;2128098;27;20552;-71
2022/10/18 04:50:23;;;;;;;7.78;2.88;;;;;;;8.47;100.00;94007.16;2128046;27;20042;-69
2022/10/18 04:51:24;;;;;;;9.07;2.80;;;;;;;8.63;100.00;93998.75;2128913;27;20110;-72
2022/10/18 04:52:25;;;;;;;8.50;2.78;;;;;;;8.58;100.00;93999.91;2128801;27;20031;-73
2022/10/18 04:53:26;;;;;;;6.85;2.78;;;;;;;8.61;100.00;93990.41;2128172;27;20094;-71
2022/10/18 04:54:27;;;;;;;4.18;2.78;;;;;;;8.57;100.00;93995.72;2128670;27;20033;-72
2022/10/18 04:55:28;;;;;;;6.07;3.17;;;;;;;8.97;100.00;93998.38;2127397;27;20109;-69
2022/10/18 04:56:29;;;;;;;10.07;3.05;;;;;;;8.89;100.00;94002.19;2129159;27;20410;-69
2022/10/18 04:57:30;;;;;;;5.75;2.88;;;;;;;8.83;100.00;93993.81;2129088;27;20069;-70
2022/10/18 04:58:31;;;;;;;5.97;2.90;;;;;;;8.74;100.00;93998.78;2129178;27;20073;-71
2022/10/18 04:59:32;;;;;;;5.88;3.08;;;;;;;8.77;100.00;93998.00;2128643;27;20026;-75
2022/10/18 05:00:34;;;;;;;5.18;2.90;;;;;;;8.67;100.00;93996.84;2128346;27;20069;-72
2022/10/18 05:01:35;;;;;;;6.32;3.22;;;;;;;8.61;100.00;93990.41;2128254;27;20039;-72
2022/10/18 05:02:36;;;;;;;13.00;4.68;;;;;;;8.50;100.00;93985.06;2128816;27;20054;-72